Karachi, Pakistan
Current Conditions -  °F | °C
As of 2:25 AM on Saturday 20 Dec 2014 (Local Time) from OPKC Reporting Station
Scattered Clouds Scattered Clouds  
Wind Chill: 55°   Ceiling: Unl
Heat Index: 55°   Visibility: 4mi
Dew Point: 39°   Wind: 3mph
Humidity: 54%   Direction: 40°NE
Pressure: 30.12"   Gusts: NA
Location:  24.86°N, 67.01°E
Report Text: OPKC 192125Z 04003KT 6000 SCT100 13/04 Q1020 NOSIG
Loading
Personal Weather Stations






























Interactive Weather Map New forecast layout! Learn more

10-Day Weather Forecast

Advertisements
Track Severe Weather on mobile